Temp: 11.7°C   Baro: 1028.9mb
  Wind: 0.0mph   Dir: NE (51°)
  Rain: 0.0mm (0.0mm/hr)
  Solar: 0W/m2  Hum: 82%
 
Bath Spa Weather Historical Data
Daily Summary for June 13, 2019 Units:  Metric    English   Both
Next Day »
Daily Weekly Monthly Yearly Custom
  High: Low: Average:
Temperature: 13.8 °C 10.0 °C 11.6 °C
Dew Point: 12.2 °C 8.9 °C 10.1 °C
Humidity: 94% 86% 91%
Wind Speed: 24.1km/h 0.0km/h 6.5km/h
Wind Gust: 33.8km/h - -
Wind direction- - WSW
Pressure: 1007.0 hPa 1002.9 hPa -
Precipitation: 8.1 mm    
Historical Graphs
 
 
Tabular Data for June 13, 2019
Time Temperature Dew Point Pressure Wind direction Wind Speed Wind Gust Humidity Rainfall Rate (Hourly) solar
00:04 10.7 °C 9.6 °C 1006.7 hPa Calm   3.2 km/h 93% 1.0 mm 0.00 W/m2
00:09 10.7 °C 9.6 °C 1006.7 hPa Calm   8.0 km/h 93% 1.0 mm 0.00 W/m2
00:14 10.7 °C 9.6 °C 1006.7 hPa WNW 1.4 km/h 1.6 km/h 93% 1.0 mm 0.00 W/m2
00:19 10.7 °C 9.6 °C 1006.7 hPa WNW 1.4 km/h 6.4 km/h 93% 1.0 mm 0.00 W/m2
00:24 10.7 °C 9.6 °C 1006.7 hPa Calm   4.8 km/h 93% 1.0 mm 0.00 W/m2
00:29 10.6 °C 9.5 °C 1006.3 hPa WNW 6.4 km/h 8.0 km/h 93% 1.0 mm 0.00 W/m2
00:34 10.6 °C 9.5 °C 1006.3 hPa WNW 3.2 km/h 8.0 km/h 93% 1.0 mm 0.00 W/m2
00:39 10.5 °C 9.4 °C 1006.3 hPa Calm   4.8 km/h 93% 1.0 mm 0.00 W/m2
00:44 10.5 °C 9.4 °C 1006.3 hPa West 4.7 km/h 11.3 km/h 93% 1.0 mm 0.00 W/m2
00:49 10.5 °C 9.4 °C 1006.3 hPa West 1.4 km/h 11.3 km/h 93% 1.0 mm 0.00 W/m2
00:54 10.5 °C 9.4 °C 1006.3 hPa Calm   12.9 km/h 93% 0.8 mm 0.00 W/m2
00:59 10.5 °C 9.4 °C 1006.3 hPa WSW 3.2 km/h 9.7 km/h 93% 0.8 mm 0.00 W/m2
01:04 10.4 °C 9.3 °C 1006.0 hPa WSW 6.4 km/h 8.0 km/h 93% 0.8 mm 0.00 W/m2
01:09 10.4 °C 9.3 °C 1006.0 hPa WSW 3.2 km/h 6.4 km/h 93% 0.5 mm 0.00 W/m2
01:14 10.4 °C 9.3 °C 1006.0 hPa WSW 1.4 km/h 4.8 km/h 93% 0.5 mm 0.00 W/m2
01:19 10.3 °C 9.2 °C 1006.0 hPa WSW 7.9 km/h 8.0 km/h 93% 0.8 mm 0.00 W/m2
01:24 10.4 °C 9.3 °C 1006.0 hPa Calm     93% 0.8 mm 0.00 W/m2
01:29 10.3 °C 9.2 °C 1005.6 hPa WSW 6.4 km/h 8.0 km/h 93% 0.8 mm 0.00 W/m2
01:34 10.3 °C 9.2 °C 1005.6 hPa Calm   8.0 km/h 93% 1.0 mm 0.00 W/m2
01:39 10.3 °C 9.2 °C 1005.6 hPa WSW 1.4 km/h 8.0 km/h 93% 0.8 mm 0.00 W/m2
01:44 10.3 °C 9.2 °C 1005.6 hPa WSW 3.2 km/h 4.8 km/h 93% 0.8 mm 0.00 W/m2
01:49 10.2 °C 9.1 °C 1005.6 hPa WSW 3.2 km/h 9.7 km/h 93% 1.0 mm 0.00 W/m2
01:54 10.2 °C 9.1 °C 1005.6 hPa WSW 4.7 km/h 9.7 km/h 93% 0.8 mm 0.00 W/m2
01:59 10.2 °C 9.1 °C 1005.6 hPa WSW 4.7 km/h 9.7 km/h 93% 0.8 mm 0.00 W/m2
02:04 10.2 °C 9.1 °C 1005.3 hPa WSW 9.7 km/h 12.9 km/h 93% 0.8 mm 0.00 W/m2
02:09 10.1 °C 9.0 °C 1005.3 hPa Calm   9.7 km/h 93% 0.8 mm 0.00 W/m2
02:14 10.1 °C 9.0 °C 1005.3 hPa Calm   4.8 km/h 93% 0.5 mm 0.00 W/m2
02:19 10.0 °C 8.9 °C 1005.0 hPa WSW 4.7 km/h 9.7 km/h 93% 0.5 mm 0.00 W/m2
02:24 10.0 °C 8.9 °C 1005.0 hPa WSW 3.2 km/h 11.3 km/h 93% 0.5 mm 0.00 W/m2
02:29 10.0 °C 8.9 °C 1005.0 hPa WSW 3.2 km/h 6.4 km/h 93% 0.5 mm 0.00 W/m2
02:34 10.0 °C 8.9 °C 1005.0 hPa WSW 6.4 km/h 11.3 km/h 93% 0.5 mm 0.00 W/m2
02:39 10.0 °C 8.9 °C 1005.0 hPa Calm   6.4 km/h 93% 0.5 mm 0.00 W/m2
02:44 10.0 °C 8.9 °C 1004.6 hPa WSW 3.2 km/h 4.8 km/h 93% 1.0 mm 0.00 W/m2
02:49 10.0 °C 8.9 °C 1004.6 hPa WSW 6.4 km/h 9.7 km/h 93% 0.8 mm 0.00 W/m2
02:54 10.0 °C 8.9 °C 1004.6 hPa WSW 3.2 km/h 6.4 km/h 93% 0.8 mm 0.00 W/m2
02:59 10.0 °C 8.9 °C 1004.6 hPa Calm   4.8 km/h 93% 0.8 mm 0.00 W/m2
03:04 10.0 °C 8.9 °C 1004.6 hPa Calm   4.8 km/h 93% 1.0 mm 0.00 W/m2
03:09 10.0 °C 8.9 °C 1004.6 hPa Calm   6.4 km/h 93% 0.8 mm 0.00 W/m2
03:14 10.0 °C 8.9 °C 1004.6 hPa Calm   4.8 km/h 93% 0.8 mm 0.00 W/m2
03:19 10.1 °C 9.0 °C 1004.6 hPa Calm   4.8 km/h 93% 1.0 mm 0.00 W/m2
03:24 10.1 °C 9.0 °C 1004.6 hPa Calm   1.6 km/h 93% 1.0 mm 0.00 W/m2
03:29 10.1 °C 9.0 °C 1004.6 hPa WSW 3.2 km/h 8.0 km/h 93% 0.8 mm 0.00 W/m2
03:34 10.2 °C 9.1 °C 1004.3 hPa WSW 6.4 km/h 9.7 km/h 93% 1.0 mm 0.00 W/m2
03:39 10.2 °C 9.1 °C 1004.3 hPa WSW 6.4 km/h 9.7 km/h 93% 1.0 mm 0.00 W/m2
03:44 10.2 °C 9.1 °C 1004.3 hPa WSW 6.4 km/h 8.0 km/h 93% 0.8 mm 0.00 W/m2
03:49 10.2 °C 9.1 °C 1004.3 hPa WSW 1.4 km/h 11.3 km/h 93% 0.8 mm 0.00 W/m2
03:54 10.2 °C 9.3 °C 1004.3 hPa WSW 3.2 km/h 6.4 km/h 94% 0.8 mm 0.00 W/m2
03:59 10.2 °C 9.3 °C 1004.3 hPa Calm   8.0 km/h 94% 1.0 mm 0.00 W/m2
04:04 10.2 °C 9.3 °C 1003.9 hPa SW 4.7 km/h 9.7 km/h 94% 1.0 mm 0.00 W/m2
04:09 10.2 °C 9.3 °C 1004.3 hPa SW 6.4 km/h 9.7 km/h 94% 1.0 mm 0.00 W/m2
04:14 10.3 °C 9.4 °C 1004.3 hPa SW 4.7 km/h 8.0 km/h 94% 1.0 mm 0.00 W/m2
04:19 10.2 °C 9.3 °C 1003.9 hPa SW 7.9 km/h 9.7 km/h 94% 1.0 mm 0.00 W/m2
04:24 10.2 °C 9.3 °C 1003.9 hPa SW 1.4 km/h 8.0 km/h 94% 1.0 mm 0.00 W/m2
04:29 10.3 °C 9.4 °C 1003.9 hPa SW 1.4 km/h 8.0 km/h 94% 1.0 mm 0.00 W/m2
04:34 10.3 °C 9.4 °C 1003.9 hPa SW 6.4 km/h 8.0 km/h 94% 1.0 mm 0.00 W/m2
04:39 10.3 °C 9.4 °C 1004.3 hPa Calm   6.4 km/h 94% 1.0 mm 0.00 W/m2
04:44 10.3 °C 9.4 °C 1003.9 hPa SW 4.7 km/h 4.8 km/h 94% 1.0 mm 0.00 W/m2
04:49 10.3 °C 9.4 °C 1003.9 hPa SW 4.7 km/h 8.0 km/h 94% 1.0 mm 0.00 W/m2
04:54 10.3 °C 9.4 °C 1003.9 hPa SW 1.4 km/h 8.0 km/h 94% 1.0 mm 0.00 W/m2
04:59 10.3 °C 9.4 °C 1004.3 hPa SW 4.7 km/h 12.9 km/h 94% 1.0 mm 0.00 W/m2
05:04 10.3 °C 9.4 °C 1003.9 hPa SW 4.7 km/h 9.7 km/h 94% 1.0 mm 0.00 W/m2
05:09 10.3 °C 9.4 °C 1003.9 hPa SW 6.4 km/h 8.0 km/h 94% 1.0 mm 0.00 W/m2
05:14 10.3 °C 9.4 °C 1003.9 hPa SW 9.7 km/h 9.7 km/h 94% 1.0 mm 5.00 W/m2
05:19 10.3 °C 9.4 °C 1003.9 hPa SW 11.3 km/h 11.3 km/h 94% 1.0 mm 5.00 W/m2
05:24 10.3 °C 9.4 °C 1003.9 hPa Calm   6.4 km/h 94% 1.0 mm 9.00 W/m2
05:29 10.3 °C 9.4 °C 1003.9 hPa SW 6.4 km/h 14.5 km/h 94% 1.0 mm 11.00 W/m2
05:34 10.2 °C 9.3 °C 1003.9 hPa SW 4.7 km/h 12.9 km/h 94% 1.0 mm 14.00 W/m2
05:39 10.2 °C 9.3 °C 1003.9 hPa SW 3.2 km/h 14.5 km/h 94% 1.0 mm 18.00 W/m2
05:44 10.2 °C 9.3 °C 1003.9 hPa WSW 9.7 km/h 12.9 km/h 94% 1.0 mm 23.00 W/m2
05:49 10.2 °C 9.3 °C 1003.9 hPa WSW 7.9 km/h 9.7 km/h 94% 1.0 mm 28.00 W/m2
05:54 10.3 °C 9.4 °C 1003.9 hPa WSW 6.4 km/h 9.7 km/h 94% 1.0 mm 30.00 W/m2
05:59 10.3 °C 9.4 °C 1003.9 hPa WSW 3.2 km/h 8.0 km/h 94% 0.8 mm 30.00 W/m2
06:04 10.3 °C 9.4 °C 1003.9 hPa WSW 1.4 km/h 8.0 km/h 94% 0.8 mm 30.00 W/m2
06:09 10.3 °C 9.4 °C 1003.9 hPa WSW 4.7 km/h 9.7 km/h 94% 0.5 mm 35.00 W/m2
06:14 10.3 °C 9.4 °C 1003.9 hPa Calm   4.8 km/h 94% 1.0 mm 44.00 W/m2
06:19 10.3 °C 9.4 °C 1003.9 hPa WSW 4.7 km/h 9.7 km/h 94% 1.0 mm 40.00 W/m2
06:24 10.3 °C 9.4 °C 1003.6 hPa WSW 4.7 km/h 11.3 km/h 94% 1.0 mm 39.00 W/m2
06:29 10.3 °C 9.4 °C 1003.6 hPa SW 14.5 km/h 14.5 km/h 94% 0.8 mm 40.00 W/m2
06:34 10.3 °C 9.4 °C 1003.6 hPa SW 3.2 km/h 8.0 km/h 94% 1.0 mm 49.00 W/m2
06:39 10.4 °C 9.5 °C 1003.6 hPa SW 11.1 km/h 11.3 km/h 94% 0.8 mm 30.00 W/m2
06:44 10.3 °C 9.4 °C 1003.6 hPa SW 6.4 km/h 11.3 km/h 94% 0.8 mm 28.00 W/m2
06:49 10.3 °C 9.4 °C 1003.6 hPa SW 6.4 km/h 6.4 km/h 94% 1.0 mm 28.00 W/m2
06:54 10.3 °C 9.4 °C 1003.6 hPa SW 1.4 km/h 8.0 km/h 94% 1.0 mm 39.00 W/m2
06:59 10.3 °C 9.4 °C 1003.6 hPa Calm   9.7 km/h 94% 1.0 mm 51.00 W/m2
07:04 10.3 °C 9.4 °C 1003.6 hPa WSW 4.7 km/h 17.7 km/h 94% 1.0 mm 42.00 W/m2
07:09 10.3 °C 9.4 °C 1003.6 hPa SW 3.2 km/h 8.0 km/h 94% 1.0 mm 44.00 W/m2
07:14 10.4 °C 9.5 °C 1003.3 hPa SSW 3.2 km/h 19.3 km/h 94% 0.8 mm 51.00 W/m2
07:19 10.4 °C 9.5 °C 1003.3 hPa WSW 7.9 km/h 14.5 km/h 94% 0.8 mm 72.00 W/m2
07:24 10.4 °C 9.3 °C 1003.3 hPa SW 13.0 km/h 17.7 km/h 93% 0.8 mm 79.00 W/m2
07:29 10.4 °C 9.3 °C 1003.3 hPa SSW 6.4 km/h 11.3 km/h 93% 0.5 mm 84.00 W/m2
07:34 10.5 °C 9.4 °C 1003.3 hPa SSW 9.7 km/h 12.9 km/h 93% 0.5 mm 83.00 W/m2
07:39 10.5 °C 9.4 °C 1003.3 hPa SW 7.9 km/h 11.3 km/h 93% 0.5 mm 83.00 W/m2
07:44 10.5 °C 9.4 °C 1003.3 hPa SW 3.2 km/h 14.5 km/h 93% 0.5 mm 62.00 W/m2
07:49 10.5 °C 9.4 °C 1003.3 hPa SW 7.9 km/h 12.9 km/h 93% 0.3 mm 63.00 W/m2
07:54 10.5 °C 9.4 °C 1003.3 hPa SW 9.7 km/h 11.3 km/h 93% 0.3 mm 84.00 W/m2
07:59 10.7 °C 9.6 °C 1003.3 hPa SW 7.9 km/h 9.7 km/h 93% 0.0 mm 86.00 W/m2
08:04 10.7 °C 9.6 °C 1003.3 hPa SW 9.7 km/h 9.7 km/h 93% 0.0 mm 70.00 W/m2
08:09 10.6 °C 9.5 °C 1003.3 hPa WSW 1.4 km/h 17.7 km/h 93% 0.0 mm 77.00 W/m2
08:14 10.7 °C 9.6 °C 1003.3 hPa SW 9.7 km/h 14.5 km/h 93% 0.0 mm 111.00 W/m2
08:19 10.7 °C 9.6 °C 1003.3 hPa WSW 4.7 km/h 20.9 km/h 93% 0.0 mm 97.00 W/m2
08:24 10.7 °C 9.6 °C 1003.3 hPa WSW 6.4 km/h 12.9 km/h 93% 0.0 mm 77.00 W/m2
08:29 10.7 °C 9.6 °C 1003.3 hPa SW 4.7 km/h 8.0 km/h 93% 0.0 mm 62.00 W/m2
08:34 10.7 °C 9.6 °C 1003.3 hPa WSW 20.9 km/h 20.9 km/h 93% 0.0 mm 69.00 W/m2
08:39 10.7 °C 9.6 °C 1003.3 hPa WSW 6.4 km/h 11.3 km/h 93% 0.0 mm 62.00 W/m2
08:44 10.8 °C 9.7 °C 1003.3 hPa WSW 4.7 km/h 11.3 km/h 93% 0.0 mm 67.00 W/m2
08:49 10.8 °C 9.7 °C 1003.3 hPa SW 11.1 km/h 19.3 km/h 93% 0.0 mm 67.00 W/m2
08:54 10.8 °C 9.7 °C 1003.3 hPa SW 7.9 km/h 12.9 km/h 93% 0.0 mm 62.00 W/m2
08:59 10.8 °C 9.7 °C 1003.3 hPa SW 7.9 km/h 14.5 km/h 93% 0.0 mm 76.00 W/m2
09:04 10.9 °C 9.8 °C 1003.3 hPa SW 7.9 km/h 22.5 km/h 93% 0.0 mm 84.00 W/m2
09:09 10.9 °C 9.8 °C 1003.3 hPa SW 7.9 km/h 12.9 km/h 93% 0.0 mm 111.00 W/m2
09:14 11.0 °C 9.9 °C 1003.3 hPa SW 11.1 km/h 16.1 km/h 93% 0.0 mm 134.00 W/m2
09:19 11.0 °C 9.8 °C 1003.3 hPa WSW 13.0 km/h 17.7 km/h 92% 0.0 mm 141.00 W/m2
09:24 11.2 °C 9.9 °C 1003.3 hPa WSW 3.2 km/h 12.9 km/h 92% 0.0 mm 162.00 W/m2
09:29 11.2 °C 9.9 °C 1003.3 hPa SW 7.9 km/h 16.1 km/h 92% 0.0 mm 148.00 W/m2
09:34 11.4 °C 10.1 °C 1003.3 hPa WSW 4.7 km/h 8.0 km/h 92% 0.0 mm 109.00 W/m2
09:39 11.4 °C 10.1 °C 1003.3 hPa SW 9.7 km/h 9.7 km/h 92% 0.0 mm 125.00 W/m2
09:44 11.4 °C 10.1 °C 1003.3 hPa WSW 6.4 km/h 11.3 km/h 92% 0.0 mm 100.00 W/m2
09:49 11.4 °C 10.1 °C 1003.3 hPa SW 7.9 km/h 14.5 km/h 92% 0.0 mm 141.00 W/m2
09:54 11.4 °C 10.1 °C 1003.3 hPa WSW 13.0 km/h 22.5 km/h 92% 0.0 mm 165.00 W/m2
09:59 11.5 °C 10.1 °C 1003.3 hPa SW 6.4 km/h 12.9 km/h 91% 0.0 mm 155.00 W/m2
10:04 11.7 °C 10.3 °C 1003.3 hPa SW 3.2 km/h 14.5 km/h 91% 0.3 mm 144.00 W/m2
10:09 11.7 °C 10.3 °C 1003.3 hPa SW 3.2 km/h 8.0 km/h 91% 0.3 mm 109.00 W/m2
10:14 11.7 °C 10.3 °C 1003.3 hPa SW 7.9 km/h 14.5 km/h 91% 0.3 mm 153.00 W/m2
10:19 11.7 °C 10.3 °C 1003.3 hPa SSW 3.2 km/h 14.5 km/h 91% 0.3 mm 156.00 W/m2
10:24 11.8 °C 10.4 °C 1003.3 hPa SSW 3.2 km/h 9.7 km/h 91% 0.3 mm 153.00 W/m2
10:29 11.9 °C 10.5 °C 1003.3 hPa SSW 14.5 km/h 14.5 km/h 91% 0.3 mm 181.00 W/m2
10:34 11.8 °C 10.2 °C 1003.3 hPa SSW 3.2 km/h 17.7 km/h 90% 0.3 mm 181.00 W/m2
10:39 11.9 °C 10.3 °C 1003.3 hPa SW 3.2 km/h 14.5 km/h 90% 0.3 mm 153.00 W/m2
10:44 11.9 °C 10.5 °C 1003.3 hPa Calm   9.7 km/h 91% 0.3 mm 174.00 W/m2
10:49 11.9 °C 10.5 °C 1003.3 hPa WSW 9.7 km/h 12.9 km/h 91% 0.3 mm 100.00 W/m2
10:54 11.9 °C 10.5 °C 1003.3 hPa WSW 1.4 km/h 9.7 km/h 91% 0.3 mm 65.00 W/m2
10:59 11.9 °C 10.5 °C 1003.3 hPa SW 4.7 km/h 14.5 km/h 91% 0.5 mm 72.00 W/m2
11:04 11.9 °C 10.5 °C 1002.9 hPa Calm   11.3 km/h 91% 0.3 mm 76.00 W/m2
11:09 11.9 °C 10.5 °C 1003.3 hPa Calm   6.4 km/h 91% 0.5 mm 97.00 W/m2
11:14 11.9 °C 10.5 °C 1003.3 hPa WSW 3.2 km/h 6.4 km/h 91% 0.5 mm 139.00 W/m2
11:19 11.9 °C 10.6 °C 1003.3 hPa SW 14.5 km/h 14.5 km/h 92% 0.5 mm 160.00 W/m2
11:24 11.8 °C 10.4 °C 1003.3 hPa WSW 6.4 km/h 14.5 km/h 91% 0.5 mm 130.00 W/m2
11:29 11.8 °C 10.5 °C 1003.3 hPa SW 7.9 km/h 8.0 km/h 92% 0.5 mm 127.00 W/m2
11:34 11.8 °C 10.5 °C 1003.3 hPa SW 7.9 km/h 12.9 km/h 92% 0.5 mm 174.00 W/m2
11:39 11.7 °C 10.4 °C 1003.3 hPa WSW 13.0 km/h 17.7 km/h 92% 0.8 mm 230.00 W/m2
11:44 11.7 °C 10.4 °C 1003.3 hPa SW 9.7 km/h 16.1 km/h 92% 0.8 mm 229.00 W/m2
11:49 11.9 °C 10.6 °C 1003.3 hPa WSW 9.7 km/h 12.9 km/h 92% 0.8 mm 197.00 W/m2
11:54 12.0 °C 10.9 °C 1003.3 hPa Calm   8.0 km/h 93% 0.8 mm 220.00 W/m2
11:59 12.2 °C 11.1 °C 1003.3 hPa SW 6.4 km/h 6.4 km/h 93% 0.5 mm 204.00 W/m2
12:04 12.2 °C 11.1 °C 1003.3 hPa West 13.0 km/h 12.9 km/h 93% 0.5 mm 232.00 W/m2
12:09 12.1 °C 10.8 °C 1003.3 hPa SW 11.1 km/h 11.3 km/h 92% 0.5 mm 302.00 W/m2
12:14 12.3 °C 11.0 °C 1003.3 hPa WSW 9.7 km/h 9.7 km/h 92% 0.5 mm 274.00 W/m2
12:19 12.4 °C 11.1 °C 1003.3 hPa West 9.7 km/h 14.5 km/h 92% 0.5 mm 278.00 W/m2
12:24 12.6 °C 11.3 °C 1003.3 hPa SSW 6.4 km/h 11.3 km/h 92% 0.3 mm 306.00 W/m2
12:29 12.8 °C 11.5 °C 1003.3 hPa SW 6.4 km/h 12.9 km/h 92% 0.3 mm 309.00 W/m2
12:34 12.6 °C 11.3 °C 1003.3 hPa WSW 14.3 km/h 17.7 km/h 92% 0.0 mm 301.00 W/m2
12:39 12.5 °C 11.1 °C 1003.3 hPa South 7.9 km/h 11.3 km/h 91% 0.0 mm 308.00 W/m2
12:44 12.8 °C 11.5 °C 1003.3 hPa SSW 7.9 km/h 11.3 km/h 92% 0.0 mm 345.00 W/m2
12:49 12.8 °C 11.4 °C 1003.3 hPa SW 9.7 km/h 11.3 km/h 91% 0.0 mm 327.00 W/m2
12:54 12.9 °C 11.6 °C 1003.3 hPa SW 6.4 km/h 11.3 km/h 92% 0.0 mm 274.00 W/m2
12:59 12.6 °C 11.2 °C 1003.3 hPa SW 6.4 km/h 11.3 km/h 91% 0.0 mm 167.00 W/m2
13:04 12.7 °C 11.3 °C 1003.3 hPa SW 1.4 km/h 6.4 km/h 91% 0.0 mm 202.00 W/m2
13:09 12.7 °C 11.4 °C 1003.3 hPa WSW 6.4 km/h 11.3 km/h 92% 0.3 mm 265.00 W/m2
13:14 12.7 °C 11.4 °C 1003.3 hPa WSW 1.4 km/h 9.7 km/h 92% 0.3 mm 267.00 W/m2
13:19 12.8 °C 11.5 °C 1002.9 hPa West 4.7 km/h 8.0 km/h 92% 0.3 mm 216.00 W/m2
13:24 12.8 °C 11.5 °C 1003.3 hPa WSW 6.4 km/h 9.7 km/h 92% 0.3 mm 155.00 W/m2
13:29 12.8 °C 11.5 °C 1003.3 hPa West 13.0 km/h 14.5 km/h 92% 0.5 mm 76.00 W/m2
13:34 12.0 °C 10.6 °C 1003.3 hPa West 7.9 km/h 14.5 km/h 91% 0.5 mm 79.00 W/m2
13:39 12.0 °C 10.6 °C 1003.3 hPa West 1.4 km/h 6.4 km/h 91% 0.5 mm 221.00 W/m2
13:44 12.1 °C 10.8 °C 1003.3 hPa West 6.4 km/h 14.5 km/h 92% 0.5 mm 288.00 W/m2
13:49 12.4 °C 11.1 °C 1003.3 hPa West 1.4 km/h 4.8 km/h 92% 0.5 mm 445.00 W/m2
13:54 12.7 °C 11.4 °C 1003.3 hPa Calm   1.6 km/h 92% 0.5 mm 362.00 W/m2
13:59 12.8 °C 11.5 °C 1003.3 hPa Calm     92% 0.5 mm 216.00 W/m2
14:04 12.8 °C 11.5 °C 1003.3 hPa West 4.8 km/h 4.8 km/h 92% 0.5 mm 134.00 W/m2
14:09 12.9 °C 11.6 °C 1003.3 hPa West 3.2 km/h 4.8 km/h 92% 0.3 mm 209.00 W/m2
14:14 13.0 °C 11.7 °C 1003.3 hPa West 7.9 km/h 8.0 km/h 92% 0.3 mm 183.00 W/m2
14:19 13.0 °C 11.7 °C 1003.3 hPa West 14.5 km/h 14.5 km/h 92% 0.3 mm 279.00 W/m2
14:24 13.3 °C 12.0 °C 1003.3 hPa WSW 6.4 km/h 14.5 km/h 92% 0.3 mm 436.00 W/m2
14:29 13.5 °C 12.1 °C 1003.3 hPa WSW 6.4 km/h 12.9 km/h 91% 0.0 mm 482.00 W/m2
14:34 13.8 °C 12.2 °C 1003.3 hPa West 6.4 km/h 16.1 km/h 90% 0.0 mm 359.00 W/m2
14:39 13.8 °C 11.8 °C 1003.3 hPa West 3.2 km/h 12.9 km/h 88% 0.0 mm 214.00 W/m2
14:44 13.8 °C 11.8 °C 1003.3 hPa WSW 11.1 km/h 19.3 km/h 88% 0.0 mm 202.00 W/m2
14:49 13.8 °C 11.7 °C 1003.3 hPa WSW 9.7 km/h 16.1 km/h 87% 0.0 mm 206.00 W/m2
14:54 13.7 °C 11.6 °C 1003.3 hPa WSW 9.7 km/h 20.9 km/h 87% 0.0 mm 162.00 W/m2
14:59 13.5 °C 11.2 °C 1003.3 hPa WSW 7.9 km/h 17.7 km/h 86% 0.0 mm 308.00 W/m2
15:04 13.5 °C 11.4 °C 1003.6 hPa WSW 9.7 km/h 12.9 km/h 87% 0.0 mm 304.00 W/m2
15:09 13.5 °C 11.4 °C 1003.6 hPa SSW 7.9 km/h 17.7 km/h 87% 0.0 mm 367.00 W/m2
15:14 13.5 °C 11.4 °C 1003.3 hPa Calm   12.9 km/h 87% 0.0 mm 302.00 W/m2
15:19 13.5 °C 11.6 °C 1003.6 hPa SW 1.4 km/h 12.9 km/h 88% 0.0 mm 185.00 W/m2
15:24 13.4 °C 11.5 °C 1003.6 hPa WSW 4.7 km/h 12.9 km/h 88% 0.0 mm 148.00 W/m2
15:29 13.2 °C 11.3 °C 1003.6 hPa SW 6.4 km/h 17.7 km/h 88% 0.0 mm 251.00 W/m2
15:34 13.3 °C 11.4 °C 1003.6 hPa SW 13.0 km/h 14.5 km/h 88% 0.0 mm 281.00 W/m2
15:39 13.3 °C 11.4 °C 1003.6 hPa WSW 11.1 km/h 12.9 km/h 88% 0.0 mm 281.00 W/m2
15:44 13.4 °C 11.5 °C 1003.6 hPa WSW 7.9 km/h 12.9 km/h 88% 0.0 mm 306.00 W/m2
15:49 13.4 °C 11.5 °C 1003.6 hPa SW 3.2 km/h 16.1 km/h 88% 0.0 mm 306.00 W/m2
15:54 13.5 °C 11.6 °C 1003.6 hPa WSW 9.7 km/h 14.5 km/h 88% 0.0 mm 320.00 W/m2
15:59 13.6 °C 11.5 °C 1003.3 hPa SW 6.4 km/h 11.3 km/h 87% 0.0 mm 183.00 W/m2
16:04 13.6 °C 11.5 °C 1003.6 hPa SSW 9.7 km/h 16.1 km/h 87% 0.0 mm 35.00 W/m2
16:09 13.5 °C 11.4 °C 1003.6 hPa WSW 7.9 km/h 16.1 km/h 87% 0.0 mm 98.00 W/m2
16:14 13.2 °C 11.1 °C 1003.6 hPa West 9.7 km/h 20.9 km/h 87% 0.0 mm 234.00 W/m2
16:19 13.2 °C 11.1 °C 1003.6 hPa SW 14.3 km/h 17.7 km/h 87% 0.0 mm 221.00 W/m2
16:24 13.2 °C 11.1 °C 1003.6 hPa West 13.0 km/h 16.1 km/h 87% 0.0 mm 165.00 W/m2
16:29 13.2 °C 11.1 °C 1003.9 hPa WSW 19.3 km/h 19.3 km/h 87% 0.0 mm 86.00 W/m2
16:34 13.0 °C 10.9 °C 1003.9 hPa West 24.1 km/h 33.8 km/h 87% 0.0 mm 137.00 W/m2
16:39 12.5 °C 10.4 °C 1003.9 hPa West 14.3 km/h 19.3 km/h 87% 0.0 mm 118.00 W/m2
16:44 12.3 °C 10.4 °C 1003.9 hPa WNW 7.9 km/h 16.1 km/h 88% 0.0 mm 137.00 W/m2
16:49 11.9 °C 10.1 °C 1003.9 hPa West 11.1 km/h 25.7 km/h 89% 0.3 mm 139.00 W/m2
16:54 11.9 °C 10.3 °C 1004.3 hPa WNW 9.7 km/h 19.3 km/h 90% 0.3 mm 146.00 W/m2
16:59 11.9 °C 10.5 °C 1004.3 hPa West 6.4 km/h 12.9 km/h 91% 0.3 mm 139.00 W/m2
17:04 12.0 °C 10.6 °C 1004.3 hPa WNW 7.9 km/h 17.7 km/h 91% 0.3 mm 165.00 W/m2
17:09 12.0 °C 10.6 °C 1004.3 hPa WNW 13.0 km/h 16.1 km/h 91% 0.3 mm 176.00 W/m2
17:14 12.0 °C 10.7 °C 1004.3 hPa West 7.9 km/h 16.1 km/h 92% 0.3 mm 163.00 W/m2
17:19 12.2 °C 10.9 °C 1004.3 hPa West 6.4 km/h 11.3 km/h 92% 0.3 mm 113.00 W/m2
17:24 12.3 °C 11.0 °C 1004.3 hPa West 1.4 km/h 14.5 km/h 92% 0.3 mm 171.00 W/m2
17:29 12.4 °C 11.1 °C 1004.3 hPa West 9.7 km/h 16.1 km/h 92% 0.3 mm 158.00 W/m2
17:34 12.4 °C 11.1 °C 1004.3 hPa NW 3.2 km/h 16.1 km/h 92% 0.3 mm 167.00 W/m2
17:39 12.5 °C 11.2 °C 1004.3 hPa NW 7.9 km/h 17.7 km/h 92% 0.3 mm 141.00 W/m2
17:44 12.6 °C 11.3 °C 1004.3 hPa WNW 16.3 km/h 16.1 km/h 92% 0.3 mm 188.00 W/m2
17:49 12.6 °C 11.3 °C 1004.3 hPa West 13.0 km/h 16.1 km/h 92% 0.0 mm 162.00 W/m2
17:54 12.7 °C 11.3 °C 1004.3 hPa West 6.4 km/h 17.7 km/h 91% 0.0 mm 149.00 W/m2
17:59 12.6 °C 11.2 °C 1004.3 hPa West 11.1 km/h 16.1 km/h 91% 0.0 mm 165.00 W/m2
18:04 12.7 °C 11.1 °C 1004.3 hPa West 7.9 km/h 14.5 km/h 90% 0.0 mm 181.00 W/m2
18:08 12.8 °C 11.2 °C 1004.6 hPa West 6.4 km/h 20.9 km/h 90% 0.0 mm 185.00 W/m2
18:12 12.8 °C 11.0 °C 1004.6 hPa WNW 14.3 km/h 19.3 km/h 89% 0.0 mm 181.00 W/m2
18:15 12.8 °C 11.0 °C 1004.6 hPa WSW 11.1 km/h 16.1 km/h 89% 0.0 mm 153.00 W/m2
18:18 12.8 °C 11.0 °C 1004.6 hPa West 11.1 km/h 20.9 km/h 89% 0.0 mm 121.00 W/m2
18:23 12.8 °C 11.0 °C 1004.6 hPa WNW 9.7 km/h 14.5 km/h 89% 0.0 mm 105.00 W/m2
18:28 12.8 °C 11.0 °C 1004.6 hPa NW 17.7 km/h 17.7 km/h 89% 0.0 mm 121.00 W/m2
18:33 12.7 °C 10.9 °C 1004.6 hPa West 9.7 km/h 16.1 km/h 89% 0.0 mm 163.00 W/m2
18:42 12.8 °C 10.9 °C 1004.6 hPa West 7.9 km/h 17.7 km/h 88% 0.0 mm 153.00 W/m2
18:49 12.9 °C 11.0 °C 1005.0 hPa West 19.5 km/h 19.3 km/h 88% 0.0 mm 113.00 W/m2
18:54 12.9 °C 11.0 °C 1005.0 hPa WSW 20.9 km/h 20.9 km/h 88% 0.0 mm 102.00 W/m2
18:59 12.8 °C 10.7 °C 1005.0 hPa West 9.7 km/h 14.5 km/h 87% 0.0 mm 88.00 W/m2
19:04 12.9 °C 10.8 °C 1005.0 hPa West 3.2 km/h 12.9 km/h 87% 0.0 mm 102.00 W/m2
19:09 13.0 °C 10.9 °C 1005.0 hPa WSW 6.4 km/h 11.3 km/h 87% 0.0 mm 120.00 W/m2
19:14 13.0 °C 10.9 °C 1005.3 hPa West 9.7 km/h 9.7 km/h 87% 0.0 mm 160.00 W/m2
19:19 13.2 °C 11.1 °C 1005.3 hPa West 4.7 km/h 9.7 km/h 87% 0.0 mm 127.00 W/m2
19:24 13.3 °C 11.0 °C 1005.3 hPa WSW 9.7 km/h 14.5 km/h 86% 0.0 mm 107.00 W/m2
19:29 13.2 °C 10.9 °C 1005.3 hPa WNW 7.9 km/h 16.1 km/h 86% 0.0 mm 72.00 W/m2
19:34 13.2 °C 10.9 °C 1005.6 hPa WSW 7.9 km/h 12.9 km/h 86% 0.0 mm 40.00 W/m2
19:39 13.0 °C 10.7 °C 1005.6 hPa West 7.9 km/h 9.7 km/h 86% 0.0 mm 26.00 W/m2
19:44 12.8 °C 10.5 °C 1005.6 hPa West 9.7 km/h 20.9 km/h 86% 0.0 mm 25.00 W/m2
19:49 12.7 °C 10.4 °C 1005.6 hPa West 3.2 km/h 8.0 km/h 86% 0.0 mm 23.00 W/m2
19:54 12.5 °C 10.2 °C 1005.6 hPa West 14.3 km/h 20.9 km/h 86% 0.0 mm 25.00 W/m2
19:54 12.5 °C 10.2 °C 1005.6 hPa West 9.7 km/h 20.9 km/h 86% 0.0 mm 25.00 W/m2
19:56 12.5 °C 10.2 °C 1005.6 hPa WNW 7.9 km/h 20.9 km/h 86% 0.0 mm 26.00 W/m2
19:58 12.5 °C 10.2 °C 1006.0 hPa West 22.5 km/h 22.5 km/h 86% 0.0 mm 28.00 W/m2
19:59 12.4 °C 10.1 °C 1005.6 hPa West 7.9 km/h 22.5 km/h 86% 0.0 mm 28.00 W/m2
19:59 12.5 °C 10.2 °C 1006.0 hPa WNW 9.7 km/h 22.5 km/h 86% 0.0 mm 30.00 W/m2
20:02 12.4 °C 10.1 °C 1006.0 hPa WNW 11.1 km/h 11.3 km/h 86% 0.0 mm 32.00 W/m2
20:10 12.3 °C 10.0 °C 1006.0 hPa WNW 14.3 km/h 14.5 km/h 86% 0.0 mm 33.00 W/m2
20:11 12.3 °C 10.0 °C 1006.0 hPa West 17.7 km/h 17.7 km/h 86% 0.0 mm 33.00 W/m2
20:15 12.2 °C 9.9 °C 1006.0 hPa West 3.2 km/h 11.3 km/h 86% 0.0 mm 33.00 W/m2
20:21 12.1 °C 9.8 °C 1006.0 hPa WNW 4.7 km/h 12.9 km/h 86% 0.0 mm 30.00 W/m2
20:27 12.0 °C 9.7 °C 1006.3 hPa WSW 4.7 km/h 11.3 km/h 86% 0.0 mm 21.00 W/m2
20:33 11.9 °C 9.6 °C 1006.3 hPa West 14.5 km/h 14.5 km/h 86% 0.0 mm 18.00 W/m2
20:40 11.9 °C 9.6 °C 1006.3 hPa West 11.1 km/h 14.5 km/h 86% 0.0 mm 16.00 W/m2
20:45 11.9 °C 9.8 °C 1006.3 hPa WNW 13.0 km/h 24.1 km/h 87% 0.0 mm 16.00 W/m2
20:52 11.8 °C 9.5 °C 1006.3 hPa WNW 3.2 km/h 14.5 km/h 86% 0.0 mm 14.00 W/m2
20:54 11.8 °C 9.7 °C 1006.7 hPa NW 9.7 km/h 16.1 km/h 87% 0.0 mm 12.00 W/m2
21:01 11.7 °C 9.6 °C 1006.7 hPa West 4.7 km/h 4.8 km/h 87% 0.0 mm 11.00 W/m2
21:07 11.6 °C 9.5 °C 1006.7 hPa WNW 4.7 km/h 12.9 km/h 87% 0.0 mm 7.00 W/m2
21:16 11.5 °C 9.4 °C 1006.7 hPa West 4.7 km/h 11.3 km/h 87% 0.0 mm 0.00 W/m2
21:24 11.5 °C 9.4 °C 1007.0 hPa West 6.4 km/h 11.3 km/h 87% 0.0 mm 0.00 W/m2
21:26 11.5 °C 9.4 °C 1007.0 hPa WNW 7.9 km/h 11.3 km/h 87% 0.0 mm 0.00 W/m2
21:26 11.5 °C 9.4 °C 1007.0 hPa West 6.4 km/h 11.3 km/h 87% 0.0 mm 0.00 W/m2
21:27 11.4 °C 9.3 °C 1007.0 hPa West 7.9 km/h 11.3 km/h 87% 0.0 mm 0.00 W/m2
21:28 11.4 °C 9.3 °C 1007.0 hPa West 6.4 km/h 9.7 km/h 87% 0.0 mm 0.00 W/m2
21:30 11.4 °C 9.3 °C 1007.0 hPa West 1.4 km/h 6.4 km/h 87% 0.0 mm 0.00 W/m2
21:31 11.4 °C 9.3 °C 1007.0 hPa Calm   3.2 km/h 87% 0.0 mm 0.00 W/m2
21:33 11.4 °C 9.3 °C 1007.0 hPa West 3.2 km/h 6.4 km/h 87% 0.0 mm 0.00 W/m2
21:39 11.4 °C 9.3 °C 1007.0 hPa West 3.2 km/h 6.4 km/h 87% 0.0 mm 0.00 W/m2
21:40 11.4 °C 9.3 °C 1007.0 hPa West 4.7 km/h 6.4 km/h 87% 0.0 mm 0.00 W/m2
21:41 11.3 °C 9.2 °C 1007.0 hPa West 3.2 km/h 4.8 km/h 87% 0.0 mm 0.00 W/m2
21:43 11.3 °C 9.2 °C 1007.0 hPa West 3.2 km/h 4.8 km/h 87% 0.0 mm 0.00 W/m2
21:46 11.3 °C 9.2 °C 1007.0 hPa West 1.4 km/h 8.0 km/h 87% 0.0 mm 0.00 W/m2
21:46 11.3 °C 9.2 °C 1007.0 hPa West 4.7 km/h 9.7 km/h 87% 0.0 mm 0.00 W/m2